createdAt,value
2018-08-19T00:00:25.851Z,0.00
2018-08-19T00:01:32.811Z,0.00
2018-08-19T00:02:38.806Z,0.00
2018-08-19T00:03:45.277Z,0.00
2018-08-19T00:04:51.704Z,0.00
2018-08-19T00:05:58.660Z,0.00
2018-08-19T00:07:04.632Z,0.00
2018-08-19T00:08:11.105Z,0.00
2018-08-19T00:09:17.543Z,0.00
2018-08-19T00:10:24.002Z,0.00
2018-08-19T00:11:30.480Z,0.00
2018-08-19T00:12:36.935Z,0.00
2018-08-19T00:13:44.400Z,0.00
2018-08-19T00:14:49.869Z,0.00
2018-08-19T00:15:56.331Z,0.00
2018-08-19T00:17:02.793Z,0.00
2018-08-19T00:18:09.253Z,0.00
2018-08-19T00:19:15.728Z,0.00
2018-08-19T00:20:22.281Z,0.00
2018-08-19T00:21:28.641Z,0.00
2018-08-19T00:22:35.109Z,0.00
2018-08-19T00:23:41.581Z,0.00
2018-08-19T00:24:48.032Z,0.00
2018-08-19T00:25:54.496Z,0.00
2018-08-19T00:27:00.965Z,0.00
2018-08-19T00:28:07.449Z,0.00
2018-08-19T00:29:13.899Z,0.00
2018-08-19T00:30:20.355Z,0.00
2018-08-19T00:31:26.816Z,0.00
2018-08-19T00:32:33.294Z,0.00
2018-08-19T00:33:39.751Z,0.00
2018-08-19T00:34:46.203Z,0.00
2018-08-19T00:35:52.672Z,0.00
2018-08-19T00:36:59.123Z,0.00
2018-08-19T00:38:05.587Z,0.00
2018-08-19T00:39:12.053Z,0.00
2018-08-19T00:41:24.977Z,0.00
2018-08-19T00:42:31.439Z,0.00
2018-08-19T00:43:37.897Z,0.00
2018-08-19T00:44:44.375Z,0.00
2018-08-19T00:45:51.307Z,0.00
2018-08-19T00:46:57.277Z,0.00
2018-08-19T00:48:03.748Z,0.00
2018-08-19T00:49:10.211Z,0.00
2018-08-19T00:50:17.165Z,0.00
2018-08-19T00:51:23.123Z,0.00
2018-08-19T00:52:29.583Z,0.00
2018-08-19T00:53:36.042Z,0.00
2018-08-19T00:54:42.516Z,0.00
2018-08-19T00:55:48.961Z,0.00
2018-08-19T00:56:55.422Z,0.00
2018-08-19T00:58:01.889Z,0.00
2018-08-19T00:59:08.368Z,0.00
2018-08-19T01:00:14.807Z,0.00
2018-08-19T01:01:21.275Z,0.00
2018-08-19T01:02:27.733Z,0.00
2018-08-19T01:03:34.203Z,0.00
2018-08-19T01:04:40.671Z,0.00
2018-08-19T01:05:47.124Z,0.00
2018-08-19T01:06:53.587Z,0.00
2018-08-19T01:08:00.048Z,0.00
2018-08-19T01:09:06.511Z,0.00
2018-08-19T01:10:13.437Z,0.00
2018-08-19T01:11:20.440Z,0.00
2018-08-19T01:12:25.895Z,0.00
2018-08-19T01:13:32.373Z,0.00
2018-08-19T01:14:38.836Z,0.00
2018-08-19T01:15:45.293Z,0.00
2018-08-19T01:16:51.762Z,0.00
2018-08-19T01:17:58.228Z,0.00
2018-08-19T01:19:04.683Z,0.00
2018-08-19T01:20:11.164Z,0.00
2018-08-19T01:21:18.605Z,0.00
2018-08-19T01:22:24.078Z,0.00
2018-08-19T01:23:30.553Z,0.00
2018-08-19T01:24:37.533Z,0.00
2018-08-19T01:25:43.987Z,0.00
2018-08-19T01:26:49.950Z,0.00
2018-08-19T01:27:56.411Z,0.00
2018-08-19T01:29:02.934Z,0.00
2018-08-19T01:30:09.366Z,0.00
2018-08-19T01:31:15.820Z,0.00
2018-08-19T01:32:22.284Z,0.00
2018-08-19T01:33:28.766Z,0.00
2018-08-19T01:34:35.241Z,0.00
2018-08-19T01:35:41.715Z,0.00
2018-08-19T01:36:48.166Z,0.00
2018-08-19T01:37:54.639Z,0.00
2018-08-19T01:39:01.125Z,0.00
2018-08-19T01:40:07.589Z,0.00
2018-08-19T01:41:14.057Z,0.00
2018-08-19T01:42:20.551Z,0.00
2018-08-19T01:43:27.012Z,0.00
2018-08-19T01:44:33.474Z,0.00
2018-08-19T01:45:39.947Z,0.00
2018-08-19T01:46:46.410Z,0.00
2018-08-19T01:47:52.872Z,0.00
2018-08-19T01:48:59.334Z,0.00
2018-08-19T01:50:05.795Z,0.00
2018-08-19T01:51:12.247Z,0.00
2018-08-19T01:52:18.706Z,0.00
2018-08-19T01:53:25.671Z,0.00
2018-08-19T01:54:31.639Z,0.00
2018-08-19T01:55:38.287Z,0.00
2018-08-19T01:56:44.559Z,0.00
2018-08-19T01:57:50.993Z,0.00
2018-08-19T01:58:57.457Z,0.00
2018-08-19T02:00:03.907Z,0.00
2018-08-19T02:01:10.362Z,0.00
2018-08-19T02:02:16.839Z,0.00
2018-08-19T02:03:23.259Z,0.00
2018-08-19T02:04:30.202Z,0.00
2018-08-19T02:05:36.165Z,0.00
2018-08-19T02:06:42.599Z,0.00
2018-08-19T02:07:49.041Z,0.00
2018-08-19T02:08:55.500Z,0.00
2018-08-19T02:10:01.939Z,0.00
2018-08-19T02:11:08.380Z,0.00
2018-08-19T02:12:14.814Z,0.00
2018-08-19T02:13:21.255Z,0.00
2018-08-19T02:14:27.690Z,0.00
2018-08-19T02:15:34.147Z,0.00
2018-08-19T02:16:40.585Z,0.00
2018-08-19T02:17:47.020Z,0.00
2018-08-19T02:18:53.462Z,0.00
2018-08-19T02:19:59.896Z,0.00
2018-08-19T02:21:06.344Z,0.00
2018-08-19T02:22:12.772Z,0.00
2018-08-19T02:23:19.211Z,0.00
2018-08-19T02:24:25.644Z,0.00
2018-08-19T02:25:32.084Z,0.00
2018-08-19T02:26:38.513Z,0.00
2018-08-19T02:27:45.932Z,0.00
2018-08-19T02:28:51.375Z,0.00
2018-08-19T02:29:57.800Z,0.00
2018-08-19T02:31:04.230Z,0.00
2018-08-19T02:32:11.148Z,0.00
2018-08-19T02:33:17.086Z,0.00
2018-08-19T02:34:23.506Z,0.00
2018-08-19T02:35:29.948Z,0.00
2018-08-19T02:36:36.356Z,0.00
2018-08-19T02:37:42.790Z,0.00
2018-08-19T02:38:49.212Z,0.00
2018-08-19T02:39:55.637Z,0.00
2018-08-19T02:41:02.070Z,0.00
2018-08-19T02:42:08.488Z,0.00
2018-08-19T02:43:14.895Z,0.00
2018-08-19T02:44:21.326Z,0.00
2018-08-19T02:45:27.760Z,0.00
2018-08-19T02:46:34.268Z,0.00
2018-08-19T02:47:40.583Z,0.00
2018-08-19T02:48:47.015Z,0.00
2018-08-19T02:49:53.927Z,0.00
2018-08-19T02:50:59.864Z,0.00
2018-08-19T02:52:06.277Z,0.00
2018-08-19T02:53:12.707Z,0.00
2018-08-19T02:54:19.578Z,0.00
2018-08-19T02:55:25.538Z,0.00
2018-08-19T02:56:31.981Z,0.00
2018-08-19T02:57:38.398Z,0.00
2018-08-19T02:58:44.797Z,0.00
2018-08-19T02:59:51.233Z,0.00
2018-08-19T03:00:57.650Z,0.00
2018-08-19T03:02:04.092Z,0.00
2018-08-19T03:03:10.494Z,0.00
2018-08-19T03:04:16.903Z,0.00
2018-08-19T03:05:23.324Z,0.00
2018-08-19T03:06:29.757Z,0.00
2018-08-19T03:07:36.268Z,0.00
2018-08-19T03:08:42.587Z,0.00
2018-08-19T03:09:49.005Z,0.00
2018-08-19T03:10:55.429Z,0.00
2018-08-19T03:12:01.842Z,0.00
2018-08-19T03:13:08.250Z,0.00
2018-08-19T03:14:14.676Z,0.00
2018-08-19T03:15:21.090Z,0.00
2018-08-19T03:16:27.502Z,0.00
2018-08-19T03:17:33.915Z,0.00
2018-08-19T03:18:40.324Z,0.00
2018-08-19T03:19:46.719Z,0.00
2018-08-19T03:20:53.139Z,0.00
2018-08-19T03:21:59.543Z,0.00
2018-08-19T03:23:05.953Z,0.00
2018-08-19T03:24:12.367Z,0.00
2018-08-19T03:25:18.768Z,0.00
2018-08-19T03:26:25.187Z,0.00
2018-08-19T03:27:31.581Z,0.00
2018-08-19T03:28:38.008Z,0.00
2018-08-19T03:29:44.401Z,0.00
2018-08-19T03:30:50.826Z,0.00
2018-08-19T03:31:57.210Z,0.00
2018-08-19T03:33:03.638Z,0.00
2018-08-19T03:34:10.037Z,0.00
2018-08-19T03:35:16.451Z,0.00
2018-08-19T03:36:22.861Z,0.00
2018-08-19T03:37:29.267Z,0.00
2018-08-19T03:38:35.668Z,0.00
2018-08-19T03:39:42.080Z,0.00
2018-08-19T03:40:48.492Z,0.00
2018-08-19T03:41:54.902Z,0.00
2018-08-19T03:43:01.295Z,0.00
2018-08-19T03:44:07.705Z,0.00
2018-08-19T03:45:14.118Z,0.00
2018-08-19T03:46:20.528Z,0.00
2018-08-19T03:47:26.930Z,4.00
2018-08-19T03:48:33.344Z,4.00
2018-08-19T03:49:39.739Z,0.00
2018-08-19T03:50:46.272Z,4.00
2018-08-19T03:51:52.554Z,4.00
2018-08-19T03:52:58.952Z,4.00
2018-08-19T03:54:05.363Z,8.00
2018-08-19T03:55:11.768Z,8.00
2018-08-19T03:56:18.285Z,12.00
2018-08-19T03:57:24.576Z,12.00
2018-08-19T03:58:30.965Z,16.00
2018-08-19T03:59:37.368Z,20.00
2018-08-19T04:00:43.774Z,20.00
2018-08-19T04:01:50.280Z,28.00
2018-08-19T04:02:56.575Z,32.00
2018-08-19T04:04:02.972Z,40.00
2018-08-19T04:05:09.357Z,48.00
2018-08-19T04:06:16.758Z,52.00
2018-08-19T04:07:22.269Z,64.00
2018-08-19T04:08:28.559Z,76.00
2018-08-19T04:09:34.954Z,84.00
2018-08-19T04:10:41.364Z,100.00
2018-08-19T04:11:48.277Z,116.00
2018-08-19T04:12:54.639Z,132.00
2018-08-19T04:14:01.052Z,152.00
2018-08-19T04:15:06.951Z,168.00
2018-08-19T04:16:13.352Z,188.00
2018-08-19T04:17:19.760Z,208.00
2018-08-19T04:18:26.668Z,232.00
2018-08-19T04:19:32.564Z,256.00
2018-08-19T04:20:38.963Z,280.00
2018-08-19T04:21:45.393Z,308.00
2018-08-19T04:22:52.271Z,332.00
2018-08-19T04:23:58.660Z,364.00
2018-08-19T04:25:04.557Z,396.00
2018-08-19T04:26:10.963Z,432.00
2018-08-19T04:27:17.362Z,472.00
2018-08-19T04:28:23.760Z,508.00
2018-08-19T04:29:30.148Z,548.00
2018-08-19T04:30:38.026Z,588.00
2018-08-19T04:31:42.950Z,632.00
2018-08-19T04:32:49.335Z,676.00
2018-08-19T04:33:55.721Z,720.00
2018-08-19T04:35:02.121Z,764.00
2018-08-19T04:36:08.516Z,812.00
2018-08-19T04:37:14.900Z,860.00
2018-08-19T04:38:21.293Z,900.00
2018-08-19T04:39:27.679Z,944.00
2018-08-19T04:40:34.065Z,988.00
2018-08-19T04:41:40.496Z,1032.00
2018-08-19T04:42:46.858Z,1076.00
2018-08-19T04:43:53.246Z,1120.00
2018-08-19T04:44:59.641Z,1168.00
2018-08-19T04:46:06.539Z,1220.00
2018-08-19T04:47:12.429Z,1268.00
2018-08-19T04:48:18.820Z,1312.00
2018-08-19T04:49:25.210Z,1360.00
2018-08-19T04:50:31.616Z,1408.00
2018-08-19T04:51:38.005Z,1456.00
2018-08-19T04:52:44.408Z,1504.00
2018-08-19T04:53:50.793Z,1548.00
2018-08-19T04:54:57.190Z,1592.00
2018-08-19T04:56:03.784Z,1628.00
2018-08-19T04:57:09.988Z,1664.00
2018-08-19T04:58:16.403Z,1696.00
2018-08-19T04:59:22.796Z,1724.00
2018-08-19T05:00:29.191Z,1760.00
2018-08-19T05:01:35.592Z,1792.00
2018-08-19T05:02:42.008Z,1832.00
2018-08-19T05:03:48.405Z,1880.00
2018-08-19T05:04:54.805Z,1932.00
2018-08-19T05:06:01.211Z,1996.00
2018-08-19T05:07:07.601Z,2048.00
2018-08-19T05:08:14.186Z,2096.00
2018-08-19T05:09:20.407Z,2140.00
2018-08-19T05:10:26.800Z,2172.00
2018-08-19T05:11:33.209Z,2208.00
2018-08-19T05:12:39.616Z,2232.00
2018-08-19T05:13:46.013Z,2256.00
2018-08-19T05:14:52.414Z,2276.00
2018-08-19T05:15:58.821Z,2288.00
2018-08-19T05:17:05.226Z,2308.00
2018-08-19T05:18:11.635Z,2316.00
2018-08-19T05:19:18.019Z,2320.00
2018-08-19T05:20:24.423Z,2328.00
2018-08-19T05:21:30.822Z,2336.00
2018-08-19T05:22:37.296Z,2356.00
2018-08-19T05:23:43.626Z,2384.00
2018-08-19T05:24:50.028Z,2412.00
2018-08-19T05:25:56.440Z,2448.00
2018-08-19T05:27:02.839Z,2480.00
2018-08-19T05:28:09.240Z,2520.00
2018-08-19T05:29:15.643Z,2572.00
2018-08-19T05:30:22.532Z,2632.00
2018-08-19T05:31:28.463Z,2696.00
2018-08-19T05:32:34.863Z,2756.00
2018-08-19T05:33:41.769Z,2824.00
2018-08-19T05:34:47.676Z,2888.00
2018-08-19T05:35:54.583Z,2956.00
2018-08-19T05:37:00.510Z,3016.00
2018-08-19T05:38:06.965Z,3064.00
2018-08-19T05:39:13.327Z,3120.00
2018-08-19T05:40:19.748Z,3176.00
2018-08-19T05:41:26.655Z,3232.00
2018-08-19T05:42:33.064Z,3288.00
2018-08-19T05:43:39.015Z,3348.00
2018-08-19T05:44:45.422Z,3392.00
2018-08-19T05:45:52.324Z,3420.00
2018-08-19T05:46:58.294Z,3444.00
2018-08-19T05:48:04.689Z,3472.00
2018-08-19T05:49:11.108Z,3500.00
2018-08-19T05:50:17.541Z,3524.00
2018-08-19T05:51:23.967Z,3552.00
2018-08-19T05:52:30.388Z,3580.00
2018-08-19T05:53:36.822Z,3612.00
2018-08-19T05:54:43.240Z,3636.00
2018-08-19T05:55:49.677Z,3664.00
2018-08-19T05:56:56.113Z,3688.00
2018-08-19T05:58:02.567Z,3720.00
2018-08-19T05:59:08.989Z,3744.00
2018-08-19T06:00:16.399Z,3768.00
2018-08-19T06:01:21.846Z,3804.00
2018-08-19T06:02:28.277Z,3832.00
2018-08-19T06:03:34.729Z,3856.00
2018-08-19T06:04:41.636Z,3888.00
2018-08-19T06:05:47.580Z,3920.00
2018-08-19T06:06:54.015Z,3944.00
2018-08-19T06:08:00.466Z,3972.00
2018-08-19T06:09:06.913Z,3996.00
2018-08-19T06:10:13.355Z,4024.00
2018-08-19T06:11:19.797Z,4044.00
2018-08-19T06:12:26.242Z,4068.00
2018-08-19T06:13:32.707Z,4084.00
2018-08-19T06:14:39.154Z,4104.00
2018-08-19T06:15:45.631Z,4132.00
2018-08-19T06:16:52.075Z,4152.00
2018-08-19T06:17:58.550Z,4172.00
2018-08-19T06:19:05.014Z,4192.00
2018-08-19T06:20:11.473Z,4200.00
2018-08-19T06:21:17.953Z,4200.00
2018-08-19T06:22:24.415Z,4172.00
2018-08-19T06:23:30.892Z,4180.00
2018-08-19T06:24:37.425Z,4212.00
2018-08-19T06:25:43.841Z,4244.00
2018-08-19T06:26:50.833Z,4276.00
2018-08-19T06:27:56.811Z,4304.00
2018-08-19T06:29:03.304Z,4336.00
2018-08-19T06:30:10.279Z,4380.00
2018-08-19T06:31:16.264Z,4404.00
2018-08-19T06:32:22.760Z,4432.00
2018-08-19T06:33:29.261Z,4460.00
2018-08-19T06:34:35.785Z,4496.00
2018-08-19T06:35:42.753Z,4528.00
2018-08-19T06:36:48.729Z,4552.00
2018-08-19T06:37:56.283Z,4576.00
2018-08-19T06:39:01.753Z,4604.00
2018-08-19T06:40:08.241Z,4620.00
2018-08-19T06:41:14.736Z,4648.00
2018-08-19T06:42:21.249Z,4652.00
2018-08-19T06:43:27.757Z,4656.00
2018-08-19T06:44:34.272Z,4656.00
2018-08-19T06:45:40.770Z,4680.00
2018-08-19T06:46:47.282Z,4700.00
2018-08-19T06:47:53.788Z,4716.00
2018-08-19T06:49:00.293Z,4744.00
2018-08-19T06:50:06.804Z,4764.00
2018-08-19T06:51:13.356Z,4764.00
2018-08-19T06:52:19.869Z,4780.00
2018-08-19T06:53:26.342Z,4784.00
2018-08-19T06:54:32.864Z,4816.00
2018-08-19T06:55:39.360Z,4860.00
2018-08-19T06:56:46.380Z,4880.00
2018-08-19T06:57:52.389Z,4884.00
2018-08-19T06:58:58.935Z,4892.00
2018-08-19T07:00:05.403Z,4892.00
2018-08-19T07:01:11.915Z,4896.00
2018-08-19T07:02:18.442Z,4920.00
2018-08-19T07:03:25.507Z,4924.00
2018-08-19T07:04:31.483Z,4936.00
2018-08-19T07:05:38.001Z,4976.00
2018-08-19T07:06:44.513Z,5000.00
2018-08-19T07:07:51.048Z,5004.00
2018-08-19T07:08:57.771Z,5012.00
2018-08-19T07:10:04.101Z,5020.00
2018-08-19T07:11:10.635Z,5024.00
2018-08-19T07:12:17.163Z,5032.00
2018-08-19T07:13:23.690Z,5040.00
2018-08-19T07:14:30.222Z,5052.00
2018-08-19T07:15:36.828Z,5072.00
2018-08-19T07:16:43.790Z,5092.00
2018-08-19T07:17:49.833Z,5112.00
2018-08-19T07:18:56.377Z,5116.00
2018-08-19T07:20:02.932Z,5128.00
2018-08-19T07:21:10.468Z,5144.00
2018-08-19T07:22:16.008Z,5160.00
2018-08-19T07:23:22.561Z,5164.00
2018-08-19T07:24:29.316Z,5164.00
2018-08-19T07:25:35.871Z,5164.00
2018-08-19T07:26:42.249Z,5176.00
2018-08-19T07:27:48.807Z,5176.00
2018-08-19T07:28:55.370Z,5172.00
2018-08-19T07:30:01.939Z,5160.00
2018-08-19T07:31:08.494Z,5156.00
2018-08-19T07:32:16.076Z,5168.00
2018-08-19T07:33:21.692Z,5168.00
2018-08-19T07:34:28.228Z,5156.00
2018-08-19T07:35:34.799Z,5144.00
2018-08-19T07:36:41.453Z,5136.00
2018-08-19T07:37:47.973Z,5128.00
2018-08-19T07:38:54.559Z,5124.00
2018-08-19T07:40:01.138Z,5124.00
2018-08-19T07:41:07.735Z,5120.00
2018-08-19T07:42:14.317Z,5120.00
2018-08-19T07:43:20.905Z,5116.00
2018-08-19T07:44:27.495Z,5116.00
2018-08-19T07:45:34.087Z,5120.00
2018-08-19T07:46:40.693Z,5124.00
2018-08-19T07:47:47.273Z,5124.00
2018-08-19T07:48:53.873Z,5124.00
2018-08-19T07:50:00.480Z,5140.00
2018-08-19T07:51:07.074Z,5152.00
2018-08-19T07:52:14.276Z,5148.00
2018-08-19T07:53:20.280Z,5156.00
2018-08-19T07:54:26.911Z,5164.00
2018-08-19T07:55:33.536Z,5172.00
2018-08-19T07:56:40.102Z,5188.00
2018-08-19T07:57:46.710Z,5228.00
2018-08-19T07:58:53.337Z,5308.00
2018-08-19T07:59:59.958Z,5492.00
2018-08-19T08:01:06.561Z,5656.00
2018-08-19T08:02:13.188Z,5724.00
2018-08-19T08:03:19.786Z,5720.00
2018-08-19T08:04:26.424Z,5616.00
2018-08-19T08:05:33.022Z,5448.00
2018-08-19T08:06:39.642Z,5300.00
2018-08-19T08:07:46.269Z,5248.00
2018-08-19T08:08:52.886Z,5228.00
2018-08-19T08:09:59.513Z,5220.00
2018-08-19T08:11:06.138Z,5228.00
2018-08-19T08:12:12.774Z,5248.00
2018-08-19T08:13:19.406Z,5268.00
2018-08-19T08:14:26.019Z,5276.00
2018-08-19T08:15:32.656Z,5300.00
2018-08-19T08:16:39.286Z,5328.00
2018-08-19T08:17:45.908Z,5360.00
2018-08-19T08:18:52.544Z,5392.00
2018-08-19T08:19:59.194Z,5428.00
2018-08-19T08:21:06.393Z,5480.00
2018-08-19T08:22:12.470Z,5540.00
2018-08-19T08:23:19.610Z,5696.00
2018-08-19T08:24:25.748Z,5912.00
2018-08-19T08:25:32.886Z,6124.00
2018-08-19T08:26:39.034Z,6184.00
2018-08-19T08:27:45.670Z,6172.00
2018-08-19T08:28:52.322Z,6160.00
2018-08-19T08:29:58.959Z,6200.00
2018-08-19T08:31:05.622Z,6248.00
2018-08-19T08:32:12.267Z,6312.00
2018-08-19T08:33:18.920Z,6404.00
2018-08-19T08:34:25.594Z,6476.00
2018-08-19T08:35:32.242Z,6432.00
2018-08-19T08:36:38.901Z,6364.00
2018-08-19T08:37:45.544Z,6308.00
2018-08-19T08:38:52.208Z,6388.00
2018-08-19T08:39:58.883Z,6436.00
2018-08-19T08:41:05.530Z,6440.00
2018-08-19T08:42:13.693Z,6404.00
2018-08-19T08:43:18.863Z,6400.00
2018-08-19T08:44:25.535Z,6388.00
2018-08-19T08:45:32.701Z,6324.00
2018-08-19T08:46:38.863Z,6304.00
2018-08-19T08:47:45.695Z,6352.00
2018-08-19T08:48:52.227Z,6404.00
2018-08-19T08:49:59.433Z,6476.00
2018-08-19T08:51:05.584Z,6500.00
2018-08-19T08:52:12.255Z,6484.00
2018-08-19T08:53:18.976Z,6520.00
2018-08-19T08:54:25.621Z,6524.00
2018-08-19T08:55:32.324Z,6560.00
2018-08-19T08:56:39.004Z,6576.00
2018-08-19T08:57:45.712Z,6588.00
2018-08-19T08:58:52.401Z,6612.00
2018-08-19T08:59:59.091Z,6652.00
2018-08-19T09:01:05.789Z,6732.00
2018-08-19T09:02:12.482Z,6752.00
2018-08-19T09:03:19.266Z,6736.00
2018-08-19T09:04:25.880Z,6700.00
2018-08-19T09:05:32.590Z,6792.00
2018-08-19T09:06:39.315Z,6932.00
2018-08-19T09:07:45.992Z,7036.00
2018-08-19T09:08:52.681Z,7100.00
2018-08-19T09:09:59.401Z,7112.00
2018-08-19T09:11:06.103Z,7096.00
2018-08-19T09:12:12.803Z,7064.00
2018-08-19T09:13:19.552Z,7028.00
2018-08-19T09:14:26.216Z,7072.00
2018-08-19T09:15:32.943Z,7108.00
2018-08-19T09:16:39.657Z,7148.00
2018-08-19T09:17:46.355Z,7232.00
2018-08-19T09:18:53.083Z,7284.00
2018-08-19T09:19:59.785Z,7292.00
2018-08-19T09:21:06.518Z,7308.00
2018-08-19T09:22:13.223Z,7264.00
2018-08-19T09:23:20.009Z,7200.00
2018-08-19T09:24:26.669Z,7200.00
2018-08-19T09:25:33.385Z,7260.00
2018-08-19T09:26:40.115Z,7356.00
2018-08-19T09:27:47.346Z,7404.00
2018-08-19T09:28:53.564Z,7440.00
2018-08-19T09:30:00.321Z,7484.00
2018-08-19T09:31:07.052Z,7452.00
2018-08-19T09:32:13.782Z,7420.00
2018-08-19T09:34:27.279Z,7568.00
2018-08-19T09:35:34.018Z,7624.00
2018-08-19T09:36:40.728Z,7744.00
2018-08-19T09:37:47.426Z,7832.00
2018-08-19T09:38:54.319Z,7912.00
2018-08-19T09:40:00.922Z,7956.00
2018-08-19T09:41:07.703Z,7932.00
2018-08-19T09:42:14.797Z,7840.00
2018-08-19T09:43:21.264Z,7808.00
2018-08-19T09:44:27.991Z,7796.00
2018-08-19T09:45:34.664Z,7856.00
2018-08-19T09:46:41.408Z,8000.00
2018-08-19T09:47:48.465Z,8216.00
2018-08-19T09:48:56.517Z,8320.00
2018-08-19T09:50:01.665Z,8368.00
2018-08-19T09:51:08.448Z,8316.00
2018-08-19T09:52:15.198Z,8136.00
2018-08-19T09:53:22.429Z,8216.00
2018-08-19T09:54:28.854Z,8300.00
2018-08-19T09:55:37.037Z,8384.00
2018-08-19T09:56:42.388Z,8528.00
2018-08-19T09:57:49.168Z,8632.00
2018-08-19T09:58:55.842Z,8668.00
2018-08-19T10:00:02.743Z,8628.00
2018-08-19T10:01:09.411Z,8620.00
2018-08-19T10:02:16.250Z,8580.00
2018-08-19T10:03:22.834Z,8528.00
2018-08-19T10:04:29.603Z,8512.00
2018-08-19T10:05:36.365Z,8528.00
2018-08-19T10:06:43.169Z,8588.00
2018-08-19T10:07:50.148Z,8744.00
2018-08-19T10:08:56.702Z,8884.00
2018-08-19T10:10:03.479Z,9068.00
2018-08-19T10:11:10.264Z,9196.00
2018-08-19T10:12:17.045Z,9220.00
2018-08-19T10:13:23.828Z,9244.00
2018-08-19T10:14:30.633Z,9248.00
2018-08-19T10:15:37.904Z,9260.00
2018-08-19T10:16:44.209Z,9324.00
2018-08-19T10:17:50.983Z,9416.00
2018-08-19T10:18:57.798Z,9476.00
2018-08-19T10:20:05.587Z,9528.00
2018-08-19T10:21:11.384Z,9588.00
2018-08-19T10:22:18.291Z,9636.00
2018-08-19T10:23:24.992Z,9704.00
2018-08-19T10:24:31.800Z,9720.00
2018-08-19T10:25:39.089Z,9752.00
2018-08-19T10:26:45.409Z,9768.00
2018-08-19T10:27:52.456Z,9740.00
2018-08-19T10:28:59.026Z,9736.00
2018-08-19T10:30:05.833Z,9752.00
2018-08-19T10:31:12.694Z,9792.00
2018-08-19T10:32:19.467Z,9836.00
2018-08-19T10:33:26.278Z,9940.00
2018-08-19T10:34:33.092Z,10008.00
2018-08-19T10:35:39.920Z,10052.00
2018-08-19T10:36:46.730Z,10008.00
2018-08-19T10:37:53.542Z,9836.00
2018-08-19T10:39:00.673Z,9752.00
2018-08-19T10:40:07.549Z,9704.00
2018-08-19T10:41:14.011Z,9736.00
2018-08-19T10:42:20.842Z,9696.00
2018-08-19T10:43:27.667Z,9692.00
2018-08-19T10:44:34.489Z,9816.00
2018-08-19T10:45:41.304Z,9856.00
2018-08-19T10:46:48.147Z,9948.00
2018-08-19T10:47:55.474Z,10012.00
2018-08-19T10:49:02.331Z,10016.00
2018-08-19T10:50:08.792Z,10132.00
2018-08-19T10:51:15.827Z,10220.00
2018-08-19T10:52:22.364Z,10240.00
2018-08-19T10:53:29.246Z,10228.00
2018-08-19T10:54:36.002Z,10188.00
2018-08-19T10:55:42.856Z,10188.00
2018-08-19T10:56:49.686Z,10168.00
2018-08-19T10:57:56.547Z,10196.00
2018-08-19T10:59:03.373Z,10216.00
2018-08-19T11:00:10.654Z,10260.00
2018-08-19T11:01:17.091Z,10288.00
2018-08-19T11:02:23.987Z,10252.00
2018-08-19T11:03:30.990Z,10204.00
2018-08-19T11:04:37.789Z,10180.00
2018-08-19T11:05:44.489Z,10084.00
2018-08-19T11:06:52.344Z,10100.00
2018-08-19T11:07:58.396Z,10276.00
2018-08-19T11:09:05.015Z,10316.00
2018-08-19T11:10:12.378Z,10292.00
2018-08-19T11:11:18.801Z,10292.00
2018-08-19T11:12:25.710Z,10292.00
2018-08-19T11:13:32.685Z,10356.00
2018-08-19T11:14:39.831Z,10444.00
2018-08-19T11:15:46.255Z,10468.00
2018-08-19T11:16:53.446Z,10548.00
2018-08-19T11:17:59.983Z,10644.00
2018-08-19T11:19:07.160Z,10736.00
2018-08-19T11:20:13.898Z,10820.00
2018-08-19T11:21:20.812Z,10956.00
2018-08-19T11:22:27.899Z,11140.00
2018-08-19T11:23:35.018Z,11356.00
2018-08-19T11:24:42.321Z,11716.00
2018-08-19T11:25:49.465Z,18348.00
2018-08-19T11:26:56.724Z,64800.00
2018-08-19T11:28:04.053Z,84704.00
2018-08-19T11:29:11.405Z,90688.00
2018-08-19T11:30:18.804Z,100192.00
2018-08-19T11:31:26.256Z,100288.00
2018-08-19T11:32:33.714Z,98464.00
2018-08-19T11:33:41.173Z,100096.00
2018-08-19T11:34:49.190Z,100000.00
2018-08-19T11:35:56.227Z,99488.00
2018-08-19T11:37:03.796Z,103680.00
2018-08-19T11:38:11.364Z,105952.00
2018-08-19T11:39:18.958Z,101088.00
2018-08-19T11:40:26.546Z,98528.00
2018-08-19T11:41:34.658Z,104512.00
2018-08-19T11:42:41.810Z,108096.00
2018-08-19T11:43:49.452Z,103584.00
2018-08-19T11:44:57.126Z,102944.00
2018-08-19T11:46:04.804Z,105376.00
2018-08-19T11:47:12.514Z,101888.00
2018-08-19T11:48:20.208Z,96672.00
2018-08-19T11:49:27.944Z,97856.00
2018-08-19T11:50:35.676Z,101824.00
2018-08-19T11:51:43.412Z,102560.00
2018-08-19T11:52:51.180Z,100512.00
2018-08-19T11:53:58.944Z,101952.00
2018-08-19T11:55:07.463Z,103200.00
2018-08-19T11:56:14.970Z,102464.00
2018-08-19T11:57:22.816Z,102880.00
2018-08-19T11:58:30.144Z,104800.00
2018-08-19T11:59:37.962Z,102496.00
2018-08-19T12:00:45.848Z,97824.00
2018-08-19T12:01:53.642Z,102752.00
2018-08-19T12:03:01.705Z,106048.00
2018-08-19T12:04:09.363Z,105216.00
2018-08-19T12:05:17.249Z,103296.00
2018-08-19T12:06:25.134Z,105056.00
2018-08-19T12:07:33.050Z,106240.00
2018-08-19T12:08:40.960Z,105184.00
2018-08-19T12:09:49.375Z,103712.00
2018-08-19T12:10:56.798Z,105536.00
2018-08-19T12:12:04.751Z,104512.00
2018-08-19T12:13:12.692Z,101568.00
2018-08-19T12:14:20.638Z,100416.00
2018-08-19T12:15:28.593Z,101248.00
2018-08-19T12:16:36.559Z,104032.00
2018-08-19T12:17:44.529Z,103776.00
2018-08-19T12:18:52.462Z,97504.00
2018-08-19T12:20:00.450Z,96544.00
2018-08-19T12:21:08.444Z,100672.00
2018-08-19T12:22:16.346Z,102816.00
2018-08-19T12:23:24.319Z,100032.00
2018-08-19T12:24:32.282Z,101248.00
2018-08-19T12:25:40.251Z,99040.00
2018-08-19T12:26:48.294Z,92256.00
2018-08-19T12:27:56.277Z,85152.00
2018-08-19T12:29:04.282Z,88704.00
2018-08-19T12:30:12.269Z,100288.00
2018-08-19T12:31:20.282Z,108192.00
2018-08-19T12:32:28.278Z,104768.00
2018-08-19T12:33:36.157Z,103584.00
2018-08-19T12:34:44.286Z,102144.00
2018-08-19T12:35:52.120Z,93120.00
2018-08-19T12:37:00.135Z,87040.00
2018-08-19T12:38:08.087Z,87584.00
2018-08-19T12:39:16.046Z,93440.00
2018-08-19T12:40:24.018Z,102272.00
2018-08-19T12:41:32.972Z,101568.00
2018-08-19T12:42:39.944Z,97312.00
2018-08-19T12:43:47.919Z,96320.00
2018-08-19T12:44:55.966Z,101280.00
2018-08-19T12:46:03.859Z,100960.00
2018-08-19T12:47:11.824Z,98368.00
2018-08-19T12:48:19.791Z,99776.00
2018-08-19T12:49:27.751Z,102144.00
2018-08-19T12:50:36.265Z,99680.00
2018-08-19T12:51:43.666Z,96896.00
2018-08-19T12:52:51.621Z,97600.00
2018-08-19T12:53:59.564Z,94880.00
2018-08-19T12:55:08.499Z,95584.00
2018-08-19T12:56:15.438Z,99776.00
2018-08-19T12:57:23.390Z,100480.00
2018-08-19T12:58:31.303Z,99584.00
2018-08-19T12:59:39.242Z,97600.00
2018-08-19T13:00:47.128Z,95840.00
2018-08-19T13:01:55.040Z,94528.00
2018-08-19T13:03:02.953Z,92128.00
2018-08-19T13:04:10.859Z,96192.00
2018-08-19T13:05:18.749Z,99232.00
2018-08-19T13:06:26.636Z,100448.00
2018-08-19T13:07:34.530Z,97696.00
2018-08-19T13:08:42.421Z,96160.00
2018-08-19T13:09:50.301Z,97472.00
2018-08-19T13:10:58.277Z,99104.00
2018-08-19T13:12:06.076Z,101024.00
2018-08-19T13:13:13.941Z,96192.00
2018-08-19T13:14:21.835Z,92128.00
2018-08-19T13:15:29.683Z,96096.00
2018-08-19T13:16:37.569Z,97248.00
2018-08-19T13:17:45.442Z,97120.00
2018-08-19T13:18:53.309Z,95232.00
2018-08-19T13:20:01.183Z,98016.00
2018-08-19T13:21:09.028Z,104704.00
2018-08-19T13:22:16.874Z,107712.00
2018-08-19T13:23:24.744Z,109056.00
2018-08-19T13:24:32.597Z,108416.00
2018-08-19T13:25:40.426Z,108512.00
2018-08-19T13:26:48.276Z,108448.00
2018-08-19T13:27:56.133Z,107872.00
2018-08-19T13:29:03.983Z,105632.00
2018-08-19T13:30:11.837Z,106208.00
2018-08-19T13:31:20.146Z,107904.00
2018-08-19T13:32:27.543Z,106240.00
2018-08-19T13:33:35.406Z,105088.00
2018-08-19T13:34:43.256Z,104896.00
2018-08-19T13:35:51.101Z,103488.00
2018-08-19T13:36:58.964Z,101888.00
2018-08-19T13:38:06.845Z,99840.00
2018-08-19T13:39:14.691Z,98560.00
2018-08-19T13:40:22.546Z,97120.00
2018-08-19T13:41:30.434Z,98752.00
2018-08-19T13:42:38.249Z,98592.00
2018-08-19T13:43:46.099Z,96352.00
2018-08-19T13:44:53.940Z,94592.00